Ha Sklenar — C6CL6 — position and weather

sailwx.info

Track history (hours):
 
Tides and Currents Weather Stations Pressure Air Temp Water Temp Dewpoint Dewpoint Depression Visibility Wind Speed Wind Dir Waves Ship Positions

Ha Sklenar

Last reported at 2018-Feb-23 16:25 UTC. Time now 2018-Feb-24 12:08 UTC.
Position N 20°39' W 086°55'.

Type: Cargo ship. MMSI: 308397000.

Date/timePositionNaut miles runAvg speedWind from/ knotsBaromVisibWave heightAir tempDewpointWater temp
2018-Feb-23 16:25N 20°39' W 086°55'715.0
2018-Feb-23 15:58N 20°36' W 087°02'5 0.3
2018-Feb-22 22:04N 20°34' W 087°07'0 0.1
2018-Feb-22 22:00N 20°34' W 087°07'1 2.8
2018-Feb-22 21:30N 20°35' W 087°06'2 3.1
2018-Feb-22 20:52N 20°35' W 087°04'1 3.2
2018-Feb-22 20:29N 20°36' W 087°03'2 4.5
2018-Feb-22 20:00N 20°37' W 087°01'5 9.1
2018-Feb-22 19:30N 20°40' W 086°57'49912.0
2018-Feb-21 01:45N 25°25' W 079°32'312.7
2018-Feb-21 01:30N 25°28' W 079°31'812.6
2018-Feb-21 00:52N 25°36' W 079°30'512.6
2018-Feb-21 00:30N 25°41' W 079°30'612.5
2018-Feb-20 23:59N 25°47' W 079°29'612.6
2018-Feb-20 23:30N 25°53' W 079°28'612.7
2018-Feb-20 23:00N 25°59' W 079°28'612.7
2018-Feb-20 22:29N 26°06' W 079°27'612.5
2018-Feb-20 22:00N 26°12' W 079°26'712.4
2018-Feb-20 21:28N 26°18' W 079°25'  
2018-Feb-17 08:16N 26°16' W 079°25'312.6
2018-Feb-17 08:00N 26°13' W 079°25'712.5
2018-Feb-17 07:26N 26°05' W 079°25'511.7
2018-Feb-17 07:00N 26°00' W 079°26'712.0
2018-Feb-17 06:27N 25°54' W 079°28'612.8
2018-Feb-17 06:00N 25°48' W 079°29'713.0
2018-Feb-17 05:29N 25°42' W 079°30'612.9
2018-Feb-17 05:00N 25°35' W 079°30'612.9
2018-Feb-17 04:30N 25°29' W 079°31'712.7
2018-Feb-17 03:56N 25°22' W 079°32'1612.6
2018-Feb-17 02:40N 25°06' W 079°34'312.9
2018-Feb-17 02:27N 25°03' W 079°35'48412.6
2018-Feb-15 12:02N 20°39' W 086°54'215.2
2018-Feb-15 11:55N 20°38' W 086°56'714.9
2018-Feb-15 11:28N 20°35' W 087°02'5 0.3
2018-Feb-14 20:58N 20°34' W 087°07'2 3.7
2018-Feb-14 20:30N 20°35' W 087°06'4 7.0
2018-Feb-14 19:58N 20°36' W 087°02'  
Track history (hours):
 
Tides and Currents Weather Stations Pressure Air Temp Water Temp Dewpoint Dewpoint Depression Visibility Wind Speed Wind Dir Waves Ship Positions

Ha Sklenar

Last reported at 2018-Feb-23 16:25 UTC. Time now 2018-Feb-24 12:08 UTC.
Position N 20°39' W 086°55'.

Type: Cargo ship. MMSI: 308397000.

Date/timePositionNaut miles runAvg speedWind from/ knotsBaromVisibWave heightAir tempDewpointWater temp
2018-Feb-23 16:25N 20°39' W 086°55'715.0
2018-Feb-23 15:58N 20°36' W 087°02'5 0.3
2018-Feb-22 22:04N 20°34' W 087°07'0 0.1
2018-Feb-22 22:00N 20°34' W 087°07'1 2.8
2018-Feb-22 21:30N 20°35' W 087°06'2 3.1
2018-Feb-22 20:52N 20°35' W 087°04'1 3.2
2018-Feb-22 20:29N 20°36' W 087°03'2 4.5
2018-Feb-22 20:00N 20°37' W 087°01'5 9.1
2018-Feb-22 19:30N 20°40' W 086°57'49912.0
2018-Feb-21 01:45N 25°25' W 079°32'312.7
2018-Feb-21 01:30N 25°28' W 079°31'812.6
2018-Feb-21 00:52N 25°36' W 079°30'512.6
2018-Feb-21 00:30N 25°41' W 079°30'612.5
2018-Feb-20 23:59N 25°47' W 079°29'612.6
2018-Feb-20 23:30N 25°53' W 079°28'612.7
2018-Feb-20 23:00N 25°59' W 079°28'612.7
2018-Feb-20 22:29N 26°06' W 079°27'612.5
2018-Feb-20 22:00N 26°12' W 079°26'712.4
2018-Feb-20 21:28N 26°18' W 079°25'  
2018-Feb-17 08:16N 26°16' W 079°25'312.6
2018-Feb-17 08:00N 26°13' W 079°25'712.5
2018-Feb-17 07:26N 26°05' W 079°25'511.7
2018-Feb-17 07:00N 26°00' W 079°26'712.0
2018-Feb-17 06:27N 25°54' W 079°28'612.8
2018-Feb-17 06:00N 25°48' W 079°29'713.0
2018-Feb-17 05:29N 25°42' W 079°30'612.9
2018-Feb-17 05:00N 25°35' W 079°30'612.9
2018-Feb-17 04:30N 25°29' W 079°31'712.7
2018-Feb-17 03:56N 25°22' W 079°32'1612.6
2018-Feb-17 02:40N 25°06' W 079°34'312.9
2018-Feb-17 02:27N 25°03' W 079°35'48412.6
2018-Feb-15 12:02N 20°39' W 086°54'215.2
2018-Feb-15 11:55N 20°38' W 086°56'714.9
2018-Feb-15 11:28N 20°35' W 087°02'5 0.3
2018-Feb-14 20:58N 20°34' W 087°07'2 3.7
2018-Feb-14 20:30N 20°35' W 087°06'4 7.0
2018-Feb-14 19:58N 20°36' W 087°02'  

Dump ship's entire track history